createdAt,value
2017-09-09T00:00:41.893Z,9.60
2017-09-09T00:03:09.678Z,9.50
2017-09-09T00:05:37.941Z,9.40
2017-09-09T00:08:05.617Z,9.50
2017-09-09T00:10:33.244Z,9.60
2017-09-09T00:13:00.935Z,9.60
2017-09-09T00:15:28.573Z,9.70
2017-09-09T00:17:56.183Z,9.70
2017-09-09T00:20:23.867Z,9.70
2017-09-09T00:22:51.556Z,9.60
2017-09-09T00:25:19.211Z,9.50
2017-09-09T00:27:46.920Z,9.50
2017-09-09T00:30:14.678Z,9.50
2017-09-09T00:32:42.356Z,9.50
2017-09-09T00:35:10.392Z,9.50
2017-09-09T00:37:38.048Z,9.30
2017-09-09T00:40:05.695Z,9.30
2017-09-09T00:42:33.350Z,9.10
2017-09-09T00:45:00.984Z,9.10
2017-09-09T00:47:28.597Z,9.20
2017-09-09T00:49:56.357Z,9.20
2017-09-09T00:52:24.073Z,9.00
2017-09-09T00:54:51.786Z,9.20
2017-09-09T00:57:19.457Z,9.10
2017-09-09T00:59:47.117Z,9.10
2017-09-09T01:02:14.789Z,9.10
2017-09-09T01:04:42.464Z,9.00
2017-09-09T01:07:10.264Z,8.90
2017-09-09T01:09:37.925Z,8.90
2017-09-09T01:12:05.677Z,8.90
2017-09-09T01:14:33.304Z,8.90
2017-09-09T01:17:01.020Z,9.10
2017-09-09T01:19:28.738Z,9.10
2017-09-09T01:21:56.382Z,8.90
2017-09-09T01:24:24.048Z,9.00
2017-09-09T01:26:53.837Z,8.90
2017-09-09T01:29:21.676Z,8.90
2017-09-09T01:31:49.336Z,8.80
2017-09-09T01:34:17.088Z,8.80
2017-09-09T01:36:44.711Z,8.90
2017-09-09T01:39:13.497Z,9.10
2017-09-09T01:41:41.164Z,9.10
2017-09-09T01:44:08.845Z,9.10
2017-09-09T01:46:36.474Z,9.00
2017-09-09T01:49:04.209Z,9.00
2017-09-09T01:51:31.940Z,8.90
2017-09-09T01:53:59.655Z,9.00
2017-09-09T01:56:27.740Z,8.80
2017-09-09T01:58:55.768Z,8.60
2017-09-09T02:01:23.833Z,8.50
2017-09-09T02:03:51.528Z,8.60
2017-09-09T02:06:20.096Z,8.60
2017-09-09T02:08:47.742Z,8.70
2017-09-09T02:11:15.404Z,8.80
2017-09-09T02:13:44.035Z,8.80
2017-09-09T02:16:11.972Z,8.80
2017-09-09T02:18:39.708Z,8.90
2017-09-09T02:21:07.420Z,8.90
2017-09-09T02:23:35.121Z,8.80
2017-09-09T02:26:02.863Z,8.70
2017-09-09T02:28:30.588Z,8.70
2017-09-09T02:30:58.249Z,8.80
2017-09-09T02:33:26.008Z,8.70
2017-09-09T02:35:54.280Z,8.70
2017-09-09T02:38:21.944Z,8.70
2017-09-09T02:40:49.792Z,8.70
2017-09-09T02:43:18.129Z,8.70
2017-09-09T02:45:45.744Z,8.70
2017-09-09T02:48:13.609Z,8.40
2017-09-09T02:50:41.475Z,8.20
2017-09-09T02:53:09.332Z,8.40
2017-09-09T02:55:39.755Z,8.00
2017-09-09T02:58:07.425Z,7.90
2017-09-09T03:00:35.110Z,7.70
2017-09-09T03:03:02.795Z,7.60
2017-09-09T03:05:30.506Z,7.50
2017-09-09T03:07:58.199Z,7.70
2017-09-09T03:10:26.818Z,8.00
2017-09-09T03:12:54.456Z,7.80
2017-09-09T03:15:22.163Z,7.90
2017-09-09T03:17:49.843Z,7.80
2017-09-09T03:20:17.507Z,7.80
2017-09-09T03:22:45.209Z,7.90
2017-09-09T03:25:12.879Z,7.90
2017-09-09T03:27:40.594Z,7.80
2017-09-09T03:30:08.270Z,7.90
2017-09-09T03:32:35.908Z,8.00
2017-09-09T03:35:03.557Z,7.80
2017-09-09T03:37:31.246Z,7.80
2017-09-09T03:39:58.881Z,7.80
2017-09-09T03:42:26.543Z,7.60
2017-09-09T03:44:54.252Z,7.60
2017-09-09T03:47:21.931Z,7.60
2017-09-09T03:49:49.617Z,7.70
2017-09-09T03:52:17.246Z,7.40
2017-09-09T03:54:44.948Z,7.70
2017-09-09T03:57:12.778Z,7.80
2017-09-09T03:59:40.433Z,7.60
2017-09-09T04:02:08.151Z,7.60
2017-09-09T04:04:35.804Z,7.70
2017-09-09T04:07:03.452Z,7.70
2017-09-09T04:09:31.309Z,7.50
2017-09-09T04:11:58.995Z,7.60
2017-09-09T04:14:26.669Z,7.50
2017-09-09T04:16:54.302Z,7.70
2017-09-09T04:19:22.013Z,7.70
2017-09-09T04:21:49.684Z,7.70
2017-09-09T04:24:17.416Z,7.60
2017-09-09T04:26:45.086Z,7.60
2017-09-09T04:29:12.870Z,7.60
2017-09-09T04:31:40.507Z,7.60
2017-09-09T04:34:08.164Z,7.60
2017-09-09T04:36:35.811Z,7.70
2017-09-09T04:39:03.535Z,7.60
2017-09-09T04:41:31.211Z,7.70
2017-09-09T04:43:58.978Z,7.60
2017-09-09T04:46:26.666Z,7.60
2017-09-09T04:48:54.360Z,7.70
2017-09-09T04:51:22.086Z,7.70
2017-09-09T04:53:52.578Z,7.60
2017-09-09T04:56:20.256Z,7.60
2017-09-09T04:58:47.856Z,7.40
2017-09-09T05:01:15.495Z,7.60
2017-09-09T05:03:43.173Z,7.90
2017-09-09T05:06:10.949Z,8.00
2017-09-09T05:08:38.655Z,8.00
2017-09-09T05:11:06.465Z,8.10
2017-09-09T05:13:34.086Z,8.20
2017-09-09T05:16:01.721Z,7.90
2017-09-09T05:18:29.429Z,8.00
2017-09-09T05:20:57.135Z,8.20
2017-09-09T05:23:24.928Z,8.10
2017-09-09T05:25:52.677Z,8.30
2017-09-09T05:28:20.335Z,8.50
2017-09-09T05:30:48.021Z,8.30
2017-09-09T05:33:15.718Z,8.00
2017-09-09T05:35:43.391Z,8.00
2017-09-09T05:38:11.086Z,8.00
2017-09-09T05:40:39.380Z,8.40
2017-09-09T05:43:07.126Z,8.60
2017-09-09T05:45:34.934Z,8.50
2017-09-09T05:48:02.556Z,8.70
2017-09-09T05:50:31.349Z,9.20
2017-09-09T05:52:59.033Z,9.40
2017-09-09T05:55:26.834Z,9.70
2017-09-09T05:57:54.464Z,9.60
2017-09-09T06:00:22.178Z,9.50
2017-09-09T06:02:49.816Z,9.80
2017-09-09T06:05:17.705Z,9.90
2017-09-09T06:07:45.351Z,9.80
2017-09-09T06:10:13.038Z,9.80
2017-09-09T06:12:41.008Z,9.90
2017-09-09T06:15:08.650Z,9.90
2017-09-09T06:17:37.031Z,10.10
2017-09-09T06:20:04.717Z,10.50
2017-09-09T06:22:32.369Z,10.40
2017-09-09T06:25:00.078Z,10.30
2017-09-09T06:27:27.995Z,10.60
2017-09-09T06:29:55.784Z,11.20
2017-09-09T06:32:23.441Z,11.50
2017-09-09T06:34:51.076Z,11.70
2017-09-09T06:37:18.841Z,11.80
2017-09-09T06:39:48.719Z,11.30
2017-09-09T06:42:16.730Z,11.20
2017-09-09T06:44:44.371Z,11.30
2017-09-09T06:47:12.057Z,11.40
2017-09-09T06:49:39.705Z,11.70
2017-09-09T06:52:07.399Z,12.00
2017-09-09T06:54:35.455Z,12.30
2017-09-09T06:57:03.133Z,12.30
2017-09-09T06:59:30.789Z,12.40
2017-09-09T07:01:58.535Z,12.60
2017-09-09T07:04:27.196Z,12.90
2017-09-09T07:06:54.849Z,13.00
2017-09-09T07:09:22.491Z,12.70
2017-09-09T07:11:50.196Z,12.60
2017-09-09T07:14:17.857Z,12.80
2017-09-09T07:16:45.560Z,12.60
2017-09-09T07:19:13.236Z,12.60
2017-09-09T07:21:40.880Z,12.70
2017-09-09T07:24:08.581Z,13.00
2017-09-09T07:26:36.195Z,13.40
2017-09-09T07:29:11.392Z,13.50
2017-09-09T07:31:39.074Z,13.60
2017-09-09T07:34:06.729Z,13.80
2017-09-09T07:36:34.442Z,13.90
2017-09-09T07:39:02.075Z,13.70
2017-09-09T07:41:29.709Z,13.70
2017-09-09T07:43:57.397Z,13.90
2017-09-09T07:46:25.058Z,14.10
2017-09-09T07:48:52.691Z,14.50
2017-09-09T07:51:20.377Z,14.90
2017-09-09T07:53:48.059Z,15.30
2017-09-09T07:56:15.769Z,15.70
2017-09-09T07:58:43.412Z,15.90
2017-09-09T08:01:11.117Z,16.10
2017-09-09T08:03:38.769Z,16.10
2017-09-09T08:06:06.485Z,16.10
2017-09-09T08:08:34.122Z,16.10
2017-09-09T08:11:01.815Z,16.30
2017-09-09T08:13:29.727Z,16.30
2017-09-09T08:15:57.509Z,16.40
2017-09-09T08:18:25.960Z,16.70
2017-09-09T08:20:53.625Z,16.70
2017-09-09T08:23:21.255Z,16.80
2017-09-09T08:25:48.872Z,16.70
2017-09-09T08:28:16.542Z,16.90
2017-09-09T08:30:44.161Z,16.60
2017-09-09T08:33:12.106Z,16.60
2017-09-09T08:35:39.740Z,17.00
2017-09-09T08:38:07.412Z,17.10
2017-09-09T08:40:35.068Z,17.20
2017-09-09T08:43:02.709Z,17.20
2017-09-09T08:45:30.381Z,17.30
2017-09-09T08:47:58.127Z,17.40
2017-09-09T08:50:25.783Z,17.30
2017-09-09T08:52:53.453Z,17.40
2017-09-09T08:55:21.156Z,17.50
2017-09-09T08:57:48.830Z,17.30
2017-09-09T09:00:16.471Z,17.40
2017-09-09T09:02:44.152Z,17.50
2017-09-09T09:05:11.932Z,17.50
2017-09-09T09:07:39.611Z,17.60
2017-09-09T09:10:07.264Z,17.60
2017-09-09T09:12:34.939Z,17.50
2017-09-09T09:15:02.627Z,17.70
2017-09-09T09:17:30.307Z,17.80
2017-09-09T09:19:57.927Z,17.80
2017-09-09T09:22:25.591Z,17.80
2017-09-09T09:24:53.239Z,17.70
2017-09-09T09:27:20.872Z,17.50
2017-09-09T09:29:49.083Z,18.00
2017-09-09T09:32:16.802Z,18.00
2017-09-09T09:34:44.442Z,18.10
2017-09-09T09:37:12.149Z,18.40
2017-09-09T09:39:40.722Z,18.20
2017-09-09T09:42:08.375Z,18.00
2017-09-09T09:47:10.294Z,18.50
2017-09-09T09:49:37.974Z,18.50
2017-09-09T09:52:05.640Z,18.60
2017-09-09T09:54:33.304Z,18.70
2017-09-09T09:57:01.000Z,18.70
2017-09-09T09:59:28.870Z,18.80
2017-09-09T10:01:56.846Z,18.90
2017-09-09T10:04:24.498Z,19.00
2017-09-09T10:06:52.275Z,19.00
2017-09-09T10:09:20.263Z,18.60
2017-09-09T10:11:47.951Z,19.00
2017-09-09T10:14:15.605Z,19.40
2017-09-09T10:16:43.394Z,19.20
2017-09-09T10:19:11.310Z,19.10
2017-09-09T10:21:39.124Z,19.10
2017-09-09T10:27:12.652Z,19.20
2017-09-09T10:29:41.941Z,19.60
2017-09-09T10:32:09.584Z,19.90
2017-09-09T10:34:37.235Z,19.90
2017-09-09T10:37:04.899Z,19.80
2017-09-09T10:39:32.580Z,19.80
2017-09-09T10:42:00.276Z,19.90
2017-09-09T10:44:27.979Z,20.10
2017-09-09T10:46:55.615Z,19.90
2017-09-09T10:49:23.275Z,20.00
2017-09-09T10:51:51.209Z,20.00
2017-09-09T10:54:18.875Z,20.20
2017-09-09T10:56:46.521Z,20.20
2017-09-09T10:59:14.227Z,20.30
2017-09-09T11:01:41.861Z,20.20
2017-09-09T11:04:09.497Z,20.20
2017-09-09T11:06:37.201Z,20.20
2017-09-09T11:09:04.922Z,20.20
2017-09-09T11:11:34.843Z,20.40
2017-09-09T11:14:02.955Z,20.60
2017-09-09T11:16:30.574Z,20.80
2017-09-09T11:18:58.618Z,20.80
2017-09-09T11:21:27.419Z,20.90
2017-09-09T11:23:55.153Z,20.60
2017-09-09T11:26:22.779Z,20.80
2017-09-09T11:28:50.428Z,21.10
2017-09-09T11:31:18.146Z,20.90
2017-09-09T11:33:45.767Z,21.00
2017-09-09T11:36:13.437Z,21.20
2017-09-09T11:38:42.026Z,21.00
2017-09-09T11:41:09.655Z,21.30
2017-09-09T11:43:37.293Z,21.00
2017-09-09T11:46:04.975Z,21.40
2017-09-09T11:48:32.604Z,21.40
2017-09-09T11:51:00.283Z,21.60
2017-09-09T11:53:27.942Z,21.60
2017-09-09T11:55:55.574Z,21.60
2017-09-09T11:58:23.504Z,21.80
2017-09-09T12:00:51.167Z,22.00
2017-09-09T12:03:18.806Z,22.10
2017-09-09T12:05:46.673Z,22.70
2017-09-09T12:08:14.303Z,22.90
2017-09-09T12:10:41.956Z,22.70
2017-09-09T12:13:10.002Z,22.60
2017-09-09T12:15:37.653Z,22.80
2017-09-09T12:18:06.847Z,23.00
2017-09-09T12:20:34.487Z,23.00
2017-09-09T12:23:02.125Z,22.90
2017-09-09T12:25:30.839Z,22.40
2017-09-09T12:27:58.481Z,22.40
2017-09-09T12:30:26.131Z,22.70
2017-09-09T12:32:53.752Z,22.70
2017-09-09T12:35:21.378Z,23.10
2017-09-09T12:37:49.109Z,23.10
2017-09-09T12:40:16.723Z,23.10
2017-09-09T12:42:44.354Z,23.10
2017-09-09T12:45:11.992Z,23.20
2017-09-09T12:47:39.632Z,23.30
2017-09-09T12:50:07.269Z,23.40
2017-09-09T12:52:34.935Z,23.20
2017-09-09T12:55:02.581Z,23.10
2017-09-09T12:57:30.225Z,23.40
2017-09-09T12:59:57.880Z,23.70
2017-09-09T13:02:25.510Z,23.60
2017-09-09T13:04:53.151Z,23.70
2017-09-09T13:07:21.120Z,23.60
2017-09-09T13:09:48.779Z,23.60
2017-09-09T13:12:16.509Z,23.60
2017-09-09T13:17:18.141Z,23.60
2017-09-09T13:19:45.799Z,23.40
2017-09-09T13:22:13.427Z,23.50
2017-09-09T13:24:41.058Z,23.90
2017-09-09T13:27:08.915Z,23.80
2017-09-09T13:29:36.636Z,23.30
2017-09-09T13:32:04.271Z,23.10
2017-09-09T13:34:31.906Z,23.10
2017-09-09T13:36:59.545Z,23.40
2017-09-09T13:39:28.211Z,23.50
2017-09-09T13:41:55.898Z,23.40
2017-09-09T13:44:26.100Z,23.40
2017-09-09T13:46:53.758Z,23.70
2017-09-09T13:49:21.407Z,23.80
2017-09-09T13:51:49.105Z,24.00
2017-09-09T13:54:16.767Z,24.10
2017-09-09T13:56:44.409Z,24.10
2017-09-09T13:59:12.093Z,24.20
2017-09-09T14:01:39.876Z,24.20
2017-09-09T14:04:07.538Z,24.40
2017-09-09T14:06:35.180Z,24.20
2017-09-09T14:09:03.153Z,23.90
2017-09-09T14:11:32.431Z,23.70
2017-09-09T14:14:00.102Z,23.90
2017-09-09T14:16:27.793Z,24.10
2017-09-09T14:18:55.444Z,24.30
2017-09-09T14:21:23.073Z,24.60
2017-09-09T14:23:50.748Z,24.60
2017-09-09T14:26:18.725Z,24.90
2017-09-09T14:28:46.381Z,24.70
2017-09-09T14:31:14.033Z,25.10
2017-09-09T14:33:41.720Z,25.00
2017-09-09T14:36:11.924Z,24.70
2017-09-09T14:38:39.691Z,24.60
2017-09-09T14:41:07.351Z,24.60
2017-09-09T14:43:35.128Z,24.40
2017-09-09T14:46:02.936Z,24.40
2017-09-09T14:48:30.559Z,24.70
2017-09-09T14:50:58.208Z,24.70
2017-09-09T14:53:26.287Z,24.80
2017-09-09T14:55:53.922Z,25.00
2017-09-09T14:58:21.807Z,24.80
2017-09-09T15:00:52.067Z,24.60
2017-09-09T15:03:19.850Z,24.60
2017-09-09T15:05:47.701Z,24.70
2017-09-09T15:08:15.692Z,24.60
2017-09-09T15:10:43.560Z,24.70
2017-09-09T15:13:13.212Z,24.70
2017-09-09T15:15:41.195Z,24.50
2017-09-09T15:18:09.304Z,24.20
2017-09-09T15:20:36.977Z,24.00
2017-09-09T15:23:06.761Z,24.30
2017-09-09T15:25:36.635Z,24.40
2017-09-09T15:28:04.390Z,24.50
2017-09-09T15:30:32.235Z,24.60
2017-09-09T15:32:59.931Z,24.30
2017-09-09T15:35:28.128Z,24.20
2017-09-09T15:37:55.832Z,24.20
2017-09-09T15:40:23.524Z,24.20
2017-09-09T15:42:51.160Z,24.40
2017-09-09T15:45:19.435Z,24.50
2017-09-09T15:47:47.140Z,24.60
2017-09-09T15:50:14.780Z,24.50
2017-09-09T15:52:42.418Z,23.90
2017-09-09T15:55:10.185Z,24.00
2017-09-09T15:57:37.947Z,24.00
2017-09-09T16:00:05.911Z,23.90
2017-09-09T16:02:34.701Z,23.90
2017-09-09T16:05:02.376Z,24.00
2017-09-09T16:07:30.051Z,24.20
2017-09-09T16:09:57.776Z,23.60
2017-09-09T16:12:25.437Z,23.20
2017-09-09T16:14:53.064Z,22.90
2017-09-09T16:17:21.476Z,22.20
2017-09-09T16:19:49.899Z,21.80
2017-09-09T16:22:17.628Z,21.40
2017-09-09T16:24:45.904Z,21.50
2017-09-09T16:27:13.781Z,21.10
2017-09-09T16:29:41.437Z,20.80
2017-09-09T16:32:09.243Z,21.00
2017-09-09T16:34:36.873Z,20.80
2017-09-09T16:37:05.045Z,20.40
2017-09-09T16:39:32.946Z,20.30
2017-09-09T16:42:00.711Z,20.10
2017-09-09T16:44:28.643Z,20.00
2017-09-09T16:46:56.280Z,19.80
2017-09-09T16:49:24.226Z,19.70
2017-09-09T16:51:52.461Z,19.50
2017-09-09T16:54:21.688Z,19.40
2017-09-09T16:56:49.421Z,19.20
2017-09-09T16:59:17.087Z,19.00
2017-09-09T17:01:44.731Z,18.90
2017-09-09T17:04:12.419Z,18.90
2017-09-09T17:06:40.055Z,19.00
2017-09-09T17:09:07.989Z,18.80
2017-09-09T17:11:35.807Z,18.60
2017-09-09T17:14:03.481Z,18.60
2017-09-09T17:16:31.238Z,18.40
2017-09-09T17:18:58.910Z,18.10
2017-09-09T17:21:29.919Z,18.20
2017-09-09T17:23:57.584Z,18.30
2017-09-09T17:26:25.246Z,18.20
2017-09-09T17:28:52.932Z,18.00
2017-09-09T17:31:20.946Z,17.90
2017-09-09T17:33:48.627Z,18.00
2017-09-09T17:36:16.563Z,17.90
2017-09-09T17:38:44.252Z,18.00
2017-09-09T17:41:12.128Z,18.10
2017-09-09T17:43:40.271Z,18.10
2017-09-09T17:46:07.942Z,18.10
2017-09-09T17:48:35.609Z,18.10
2017-09-09T17:51:03.252Z,18.00
2017-09-09T17:53:31.118Z,17.90
2017-09-09T17:55:58.811Z,17.90
2017-09-09T17:58:26.481Z,17.70
2017-09-09T18:00:54.366Z,17.70
2017-09-09T18:03:25.130Z,17.80
2017-09-09T18:05:55.312Z,17.70
2017-09-09T18:08:22.925Z,17.40
2017-09-09T18:10:50.569Z,17.40
2017-09-09T18:13:18.471Z,17.50
2017-09-09T18:15:46.160Z,17.60
2017-09-09T18:18:20.250Z,17.70
2017-09-09T18:20:47.925Z,17.70
2017-09-09T18:23:16.984Z,17.60
2017-09-09T18:25:44.681Z,17.40
2017-09-09T18:28:15.721Z,17.20
2017-09-09T18:30:43.377Z,17.30
2017-09-09T18:33:11.173Z,17.40
2017-09-09T18:35:40.538Z,17.50
2017-09-09T18:38:10.308Z,17.50
2017-09-09T18:40:37.957Z,17.40
2017-09-09T18:43:07.505Z,17.30
2017-09-09T18:45:35.237Z,17.20
2017-09-09T18:48:09.162Z,17.20
2017-09-09T18:50:37.976Z,17.30
2017-09-09T18:53:06.094Z,17.20
2017-09-09T18:55:33.770Z,17.10
2017-09-09T18:58:01.485Z,17.00
2017-09-09T19:00:34.088Z,17.00
2017-09-09T19:03:01.950Z,17.00
2017-09-09T19:05:30.203Z,17.00
2017-09-09T19:07:57.990Z,17.00
2017-09-09T19:10:25.654Z,17.20
2017-09-09T19:12:53.341Z,17.10
2017-09-09T19:15:21.000Z,17.30
2017-09-09T19:17:48.647Z,17.00
2017-09-09T19:20:16.282Z,16.90
2017-09-09T19:22:43.980Z,16.90
2017-09-09T19:25:11.621Z,16.80
2017-09-09T19:27:39.266Z,16.70
2017-09-09T19:30:06.899Z,16.50
2017-09-09T19:32:34.590Z,16.50
2017-09-09T19:35:02.238Z,16.50
2017-09-09T19:37:29.984Z,16.50
2017-09-09T19:39:57.620Z,16.60
2017-09-09T19:42:25.346Z,16.50
2017-09-09T19:44:53.028Z,16.40
2017-09-09T19:47:20.727Z,16.40
2017-09-09T19:49:48.359Z,16.40
2017-09-09T19:52:16.084Z,16.50
2017-09-09T19:54:43.997Z,16.50
2017-09-09T19:57:11.926Z,16.40
2017-09-09T19:59:39.677Z,16.50
2017-09-09T20:02:07.328Z,16.50
2017-09-09T20:04:34.977Z,16.40
2017-09-09T20:07:02.610Z,16.30
2017-09-09T20:09:30.653Z,16.20
2017-09-09T20:11:58.286Z,16.20
2017-09-09T20:14:25.957Z,16.20
2017-09-09T20:16:53.569Z,16.10
2017-09-09T20:19:21.194Z,16.00
2017-09-09T20:21:48.861Z,16.10
2017-09-09T20:24:16.583Z,16.30
2017-09-09T20:26:44.248Z,16.30
2017-09-09T20:29:11.903Z,16.30
2017-09-09T20:31:39.592Z,16.30
2017-09-09T20:34:07.247Z,16.40
2017-09-09T20:36:34.880Z,16.20
2017-09-09T20:39:02.582Z,16.30
2017-09-09T20:41:30.227Z,16.30
2017-09-09T20:43:57.891Z,16.50
2017-09-09T20:46:25.569Z,16.50
2017-09-09T20:48:53.200Z,16.50
2017-09-09T20:51:20.861Z,16.40
2017-09-09T20:53:48.566Z,16.30
2017-09-09T20:56:16.203Z,16.20
2017-09-09T20:58:43.847Z,16.10
2017-09-09T21:01:11.991Z,16.00
2017-09-09T21:03:39.689Z,16.10
2017-09-09T21:06:07.363Z,16.10
2017-09-09T21:08:35.040Z,16.00
2017-09-09T21:11:02.670Z,16.00
2017-09-09T21:13:30.360Z,15.90
2017-09-09T21:15:58.013Z,15.80
2017-09-09T21:18:25.726Z,15.70
2017-09-09T21:20:53.356Z,15.70
2017-09-09T21:23:20.981Z,15.60
2017-09-09T21:25:48.646Z,15.60
2017-09-09T21:28:16.261Z,15.60
2017-09-09T21:30:43.885Z,15.60
2017-09-09T21:33:11.553Z,15.60
2017-09-09T21:35:39.207Z,15.50
2017-09-09T21:38:07.059Z,15.50
2017-09-09T21:40:34.744Z,15.60
2017-09-09T21:43:02.384Z,15.60
2017-09-09T21:45:29.989Z,15.60
2017-09-09T21:47:57.647Z,15.60
2017-09-09T21:50:25.310Z,15.70
2017-09-09T21:52:52.937Z,15.60
2017-09-09T21:55:20.626Z,15.60
2017-09-09T21:57:48.263Z,15.60
2017-09-09T22:00:16.017Z,15.70
2017-09-09T22:02:43.665Z,15.60
2017-09-09T22:05:11.505Z,15.60
2017-09-09T22:07:39.204Z,15.50
2017-09-09T22:10:06.843Z,15.50
2017-09-09T22:12:34.456Z,15.50
2017-09-09T22:15:02.116Z,15.40
2017-09-09T22:17:29.735Z,15.50
2017-09-09T22:19:57.386Z,15.50
2017-09-09T22:22:25.011Z,15.50
2017-09-09T22:24:52.693Z,15.50
2017-09-09T22:27:20.344Z,15.40
2017-09-09T22:29:47.980Z,15.40
2017-09-09T22:32:15.614Z,15.30
2017-09-09T22:37:17.260Z,15.30
2017-09-09T22:39:44.910Z,15.30
2017-09-09T22:42:12.593Z,15.30
2017-09-09T22:44:40.243Z,15.30
2017-09-09T22:47:08.429Z,15.20
2017-09-09T22:49:36.137Z,15.20
2017-09-09T22:52:03.825Z,15.20
2017-09-09T22:54:31.494Z,15.10
2017-09-09T22:56:59.132Z,15.10
2017-09-09T22:59:26.809Z,15.10
2017-09-09T23:01:54.797Z,15.20
2017-09-09T23:04:22.425Z,15.10
2017-09-09T23:06:50.104Z,15.10
2017-09-09T23:09:18.052Z,15.00
2017-09-09T23:11:45.701Z,15.00
2017-09-09T23:14:13.347Z,14.90
2017-09-09T23:16:41.015Z,15.00
2017-09-09T23:19:08.677Z,15.00
2017-09-09T23:21:36.331Z,15.00
2017-09-09T23:24:03.964Z,14.90
2017-09-09T23:26:31.597Z,14.90
2017-09-09T23:31:33.189Z,14.90
2017-09-09T23:34:00.814Z,14.80
2017-09-09T23:36:28.450Z,14.90
2017-09-09T23:38:56.095Z,14.80
2017-09-09T23:41:23.804Z,14.70
2017-09-09T23:43:51.444Z,14.60
2017-09-09T23:46:19.129Z,14.50
2017-09-09T23:48:46.772Z,14.40
2017-09-09T23:51:14.432Z,14.40
2017-09-09T23:53:42.085Z,14.40
2017-09-09T23:56:09.731Z,14.30
2017-09-09T23:58:37.412Z,14.30
